Time;durP1;ratioP1;P1;durP2;ratioP2;P2;SDS_P1;SDS_P2;PMS_P1;PMS_P2;Temp;Humidity;BMP_temperature;BMP_pressure;BME280_temperature;BME280_humidity;BME280_pressure;Samples;Min_cycle;Max_cycle;Signal;HPM_P1;HPM_P2
2022/08/21 00:02:23;;;;;;;5.93;2.27;;;-23.10;99.90;;;;;;5078145;28;20211;-69
2022/08/21 00:04:50;;;;;;;6.40;2.70;;;-25.80;99.90;;;;;;5084533;28;20217;-65
2022/08/21 00:07:17;;;;;;;5.10;3.50;;;-28.60;99.90;;;;;;5078737;28;20178;-65
2022/08/21 00:09:42;;;;;;;4.33;2.47;;;-22.50;99.90;;;;;;5078145;28;20167;-65
2022/08/21 00:12:09;;;;;;;7.50;3.73;;;-25.50;99.90;;;;;;5078364;28;20244;-67
2022/08/21 00:14:36;;;;;;;3.47;2.10;;;-22.70;99.90;;;;;;5078297;28;20525;-64
2022/08/21 00:17:03;;;;;;;5.67;2.47;;;-26.80;99.90;;;;;;5078925;28;20179;-65
2022/08/21 00:19:29;;;;;;;5.43;2.67;;;-27.20;99.90;;;;;;5079162;28;20590;-65
2022/08/21 00:21:55;;;;;;;8.77;2.80;;;-29.50;99.90;;;;;;5078035;28;20213;-66
2022/08/21 00:24:22;;;;;;;6.10;2.90;;;-24.00;99.90;;;;;;5078383;28;20175;-64
2022/08/21 00:26:48;;;;;;;8.53;2.83;;;-27.00;99.90;;;;;;5077240;28;20183;-65
2022/08/21 00:29:14;;;;;;;2.97;2.57;;;-30.40;99.90;;;;;;5077192;28;20171;-65
2022/08/21 00:31:41;;;;;;;5.17;2.47;;;-30.70;99.90;;;;;;5077504;28;20340;-66
2022/08/21 00:34:08;;;;;;;5.67;2.20;;;-25.60;99.90;;;;;;5077654;28;20183;-66
2022/08/21 00:36:35;;;;;;;5.27;2.20;;;-26.10;99.90;;;;;;5077027;28;20183;-65
2022/08/21 00:39:02;;;;;;;13.03;2.70;;;-28.30;99.90;;;;;;5077515;28;20186;-65
2022/08/21 00:41:28;;;;;;;4.00;2.80;;;-27.80;99.90;;;;;;5076581;28;20556;-67
2022/08/21 00:43:55;;;;;;;3.60;2.70;;;-33.00;99.90;;;;;;5077258;28;20289;-66
2022/08/21 00:46:21;;;;;;;8.07;2.57;;;-32.30;99.90;;;;;;5077319;28;20190;-65
2022/08/21 00:48:47;;;;;;;4.73;2.67;;;-30.80;99.90;;;;;;5077295;28;20203;-66
2022/08/21 00:51:25;;;;;;;4.03;2.30;;;-29.00;99.90;;;;;;5076690;28;20179;-71
2022/08/21 00:53:57;;;;;;;6.27;2.53;;;-26.20;99.90;;;;;;5078007;28;20190;-66
2022/08/21 00:56:25;;;;;;;3.77;2.20;;;-25.40;99.90;;;;;;5077800;28;20190;-65
2022/08/21 00:58:53;;;;;;;3.57;1.97;;;-25.60;99.90;;;;;;5076536;28;20199;-70
2022/08/21 01:01:19;;;;;;;4.30;2.63;;;-31.70;99.90;;;;;;5080250;28;20209;-65
2022/08/21 01:03:46;;;;;;;6.37;2.90;;;-29.60;99.90;;;;;;5076536;28;20186;-65
2022/08/21 01:06:12;;;;;;;5.03;2.87;;;-32.40;99.90;;;;;;5076356;28;20178;-65
2022/08/21 01:08:38;;;;;;;2.93;2.10;;;-32.00;99.90;;;;;;5077095;28;20208;-67
2022/08/21 01:11:05;;;;;;;7.07;2.60;;;-33.00;99.90;;;;;;5076997;28;20187;-64
2022/08/21 01:13:34;;;;;;;7.93;3.00;;;-31.70;99.90;;;;;;5076413;28;20591;-67
2022/08/21 01:16:03;;;;;;;6.83;2.97;;;-33.40;99.90;;;;;;5077320;28;20244;-66
2022/08/21 01:18:29;;;;;;;4.13;2.13;;;-25.90;99.90;;;;;;5076774;28;20175;-68
2022/08/21 01:21:12;;;;;;;7.37;3.33;;;-27.80;99.90;;;;;;5084415;28;20211;-65
2022/08/21 01:23:41;;;;;;;3.30;2.47;;;-32.40;99.90;;;;;;5076605;28;20205;-66
2022/08/21 01:26:08;;;;;;;4.63;2.20;;;-37.10;99.90;;;;;;5082357;28;20214;-68
2022/08/21 01:28:40;;;;;;;7.33;2.97;;;-31.90;99.90;;;;;;5076313;28;20198;-66
2022/08/21 01:31:08;;;;;;;5.23;2.67;;;-35.20;99.90;;;;;;5080231;28;20179;-63
2022/08/21 01:33:34;;;;;;;5.77;1.93;;;-33.30;99.90;;;;;;5078817;28;20233;-65
2022/08/21 01:36:00;;;;;;;9.63;3.03;;;-26.00;99.90;;;;;;5079069;28;20195;-66
2022/08/21 01:38:26;;;;;;;10.23;3.43;;;-34.00;99.90;;;;;;5076350;28;20201;-66
2022/08/21 01:40:52;;;;;;;2.93;2.47;;;-33.40;99.90;;;;;;5075093;28;20883;-65
2022/08/21 01:43:18;;;;;;;7.90;2.90;;;-28.10;99.90;;;;;;5076957;28;20264;-65
2022/08/21 01:45:43;;;;;;;5.60;2.80;;;-30.90;99.90;;;;;;5076635;28;20467;-64
2022/08/21 01:48:09;;;;;;;5.70;3.13;;;-32.90;99.90;;;;;;5076629;28;20714;-66
2022/08/21 01:50:35;;;;;;;7.90;3.33;;;-33.10;99.90;;;;;;5076301;28;20643;-66
2022/08/21 01:53:01;;;;;;;3.30;2.43;;;-34.90;99.90;;;;;;5076111;28;20187;-66
2022/08/21 01:55:27;;;;;;;4.33;2.90;;;-33.00;99.90;;;;;;5076491;28;20179;-65
2022/08/21 01:57:53;;;;;;;6.40;2.40;;;-31.20;99.90;;;;;;5076689;28;20244;-66
2022/08/21 02:00:22;;;;;;;9.33;3.17;;;-33.00;99.90;;;;;;5075928;28;20191;-66
2022/08/21 02:02:49;;;;;;;4.47;2.83;;;-35.80;99.90;;;;;;5075945;28;20182;-64
2022/08/21 02:05:15;;;;;;;6.33;3.10;;;-33.40;99.90;;;;;;5075180;28;20218;-64
2022/08/21 02:07:44;;;;;;;4.43;1.83;;;-34.00;99.90;;;;;;5076424;28;20284;-64
2022/08/21 02:10:14;;;;;;;4.87;3.57;;;-33.60;99.90;;;;;;5076183;28;20187;-64
2022/08/21 02:12:40;;;;;;;5.53;2.30;;;-34.00;99.90;;;;;;5076377;28;20187;-65
2022/08/21 02:15:07;;;;;;;5.60;2.60;;;-32.70;99.90;;;;;;5076842;28;20245;-65
2022/08/21 02:17:42;;;;;;;6.37;1.90;;;-38.30;99.90;;;;;;5076555;28;20257;-65
2022/08/21 02:20:10;;;;;;;4.73;2.33;;;-36.70;99.90;;;;;;5075355;28;20332;-68
2022/08/21 02:22:36;;;;;;;4.10;2.23;;;-36.10;99.90;;;;;;5079192;28;20614;-64
2022/08/21 02:25:02;;;;;;;2.53;2.00;;;-37.10;99.90;;;;;;5079688;28;20187;-65
2022/08/21 02:27:28;;;;;;;2.67;2.07;;;-34.60;99.90;;;;;;5079970;28;20240;-65
2022/08/21 02:29:56;;;;;;;3.20;2.43;;;-34.00;99.90;;;;;;5082519;28;20529;-64
2022/08/21 02:32:22;;;;;;;5.90;2.73;;;-35.10;99.90;;;;;;5080459;28;20612;-64
2022/08/21 02:34:48;;;;;;;6.60;2.37;;;-36.70;99.90;;;;;;5079382;28;20267;-66
2022/08/21 02:37:14;;;;;;;4.63;2.47;;;-34.00;99.90;;;;;;5085028;28;20202;-66
2022/08/21 02:39:40;;;;;;;4.83;2.53;;;-34.30;99.90;;;;;;5079117;28;20202;-66
2022/08/21 02:42:06;;;;;;;8.23;2.83;;;-32.70;99.90;;;;;;5079225;28;20207;-67
2022/08/21 02:44:31;;;;;;;5.33;3.03;;;-32.60;99.90;;;;;;5079639;28;20297;-67
2022/08/21 02:46:57;;;;;;;6.37;3.33;;;-30.00;99.90;;;;;;5080331;28;20610;-67
2022/08/21 02:49:23;;;;;;;9.10;2.90;;;-29.40;99.90;;;;;;5079855;28;20260;-65
2022/08/21 02:51:48;;;;;;;5.57;2.50;;;-32.70;99.90;;;;;;5080114;28;20183;-64
2022/08/21 02:54:14;;;;;;;5.27;3.13;;;-28.80;99.90;;;;;;5078553;28;20224;-65
2022/08/21 02:56:40;;;;;;;7.87;2.83;;;-29.40;99.90;;;;;;5079321;28;20187;-64
2022/08/21 02:59:06;;;;;;;4.40;2.40;;;-28.30;99.90;;;;;;5078825;28;20210;-64
2022/08/21 03:01:31;;;;;;;3.40;2.57;;;-33.80;99.90;;;;;;5085406;28;20246;-66
2022/08/21 03:03:57;;;;;;;5.40;2.73;;;-34.20;99.90;;;;;;5080379;28;20237;-66
2022/08/21 03:06:24;;;;;;;2.93;2.27;;;-26.30;99.90;;;;;;5080238;28;20229;-65
2022/08/21 03:08:50;;;;;;;6.73;3.47;;;-28.50;99.90;;;;;;5078490;28;20396;-64
2022/08/21 03:11:17;;;;;;;7.67;2.80;;;-28.20;99.90;;;;;;5078406;28;20182;-64
2022/08/21 03:13:43;;;;;;;2.57;2.37;;;-28.50;99.90;;;;;;5079716;28;21871;-65
2022/08/21 03:16:09;;;;;;;3.53;2.63;;;-27.20;99.90;;;;;;5079484;28;20191;-65
2022/08/21 03:18:35;;;;;;;6.77;2.87;;;-30.20;99.90;;;;;;5079125;28;20186;-66
2022/08/21 03:21:01;;;;;;;2.33;1.97;;;-33.10;99.90;;;;;;5078700;28;20203;-64
2022/08/21 03:23:27;;;;;;;5.90;3.13;;;-35.70;99.90;;;;;;5078913;28;20168;-65
2022/08/21 03:25:53;;;;;;;6.63;2.80;;;-36.40;99.90;;;;;;5078843;28;20711;-68
2022/08/21 03:28:21;;;;;;;4.73;2.83;;;-38.10;99.90;;;;;;5078271;28;20316;-65
2022/08/21 03:30:49;;;;;;;6.13;2.83;;;-31.60;99.90;;;;;;5078212;28;20235;-68
2022/08/21 03:33:15;;;;;;;4.37;2.70;;;-29.30;99.90;;;;;;5078171;28;20191;-65
2022/08/21 03:35:47;;;;;;;7.50;2.30;;;-35.30;99.90;;;;;;5078702;28;20725;-66
2022/08/21 03:38:13;;;;;;;11.60;2.90;;;-38.40;99.90;;;;;;5078926;28;20183;-65
2022/08/21 03:40:39;;;;;;;4.77;1.97;;;-36.00;99.90;;;;;;5078530;28;20218;-65
2022/08/21 03:43:05;;;;;;;3.23;2.00;;;-36.20;99.90;;;;;;5084882;28;20184;-68
2022/08/21 03:45:32;;;;;;;3.27;1.60;;;-30.20;99.90;;;;;;5078553;28;20496;-67
2022/08/21 03:48:00;;;;;;;3.57;1.93;;;-27.50;99.90;;;;;;5078719;28;20559;-71
2022/08/21 03:50:29;;;;;;;7.57;2.40;;;-30.60;99.90;;;;;;5078208;28;20209;-71
2022/08/21 03:52:56;;;;;;;3.23;2.03;;;-28.10;99.90;;;;;;5078214;28;20606;-72
2022/08/21 03:55:22;;;;;;;2.80;1.87;;;-25.30;99.90;;;;;;5078866;28;20179;-72
2022/08/21 03:57:48;;;;;;;2.63;2.03;;;-27.00;99.90;;;;;;5078844;28;20183;-73
2022/08/21 04:00:16;;;;;;;5.67;2.30;;;-33.40;99.90;;;;;;5078278;28;20222;-74
2022/08/21 04:02:43;;;;;;;11.83;3.03;;;-36.50;99.90;;;;;;5078074;28;20206;-69
2022/08/21 04:05:10;;;;;;;5.27;3.00;;;-37.90;99.90;;;;;;5079170;28;20512;-76
2022/08/21 04:07:36;;;;;;;4.10;3.13;;;-28.90;99.90;;;;;;5078794;28;20179;-73
2022/08/21 04:10:03;;;;;;;3.90;2.10;;;-33.30;99.90;;;;;;5078208;28;20203;-65
2022/08/21 04:12:30;;;;;;;5.43;1.60;;;-28.90;99.90;;;;;;5077928;28;20190;-76
2022/08/21 04:14:56;;;;;;;4.10;1.97;;;-28.90;99.90;;;;;;5078141;28;20191;-76
2022/08/21 04:17:22;;;;;;;2.43;1.80;;;-32.10;99.90;;;;;;5077327;28;20206;-72
2022/08/21 04:19:48;;;;;;;5.90;2.23;;;-31.60;99.90;;;;;;5077718;28;20214;-71
2022/08/21 04:22:15;;;;;;;5.97;2.23;;;-33.50;99.90;;;;;;5077582;28;20664;-70
2022/08/21 04:24:41;;;;;;;5.33;2.43;;;-28.00;99.90;;;;;;5078136;28;20268;-70
2022/08/21 04:27:07;;;;;;;6.47;1.90;;;-30.70;99.90;;;;;;5103366;28;20273;-70
2022/08/21 04:29:33;;;;;;;2.10;1.67;;;-32.70;99.90;;;;;;5081489;28;20528;-67
2022/08/21 04:31:59;;;;;;;2.53;2.13;;;-33.40;99.90;;;;;;5098633;27;20198;-66
2022/08/21 04:34:25;;;;;;;9.60;2.30;;;-36.10;99.90;;;;;;5078286;28;20530;-69
2022/08/21 04:36:50;;;;;;;7.43;2.80;;;-39.10;99.90;;;;;;5080903;28;20210;-70
2022/08/21 04:39:16;;;;;;;7.00;2.17;;;-35.70;99.90;;;;;;5076919;28;20215;-66
2022/08/21 04:41:42;;;;;;;4.57;2.27;;;-32.60;99.90;;;;;;5076714;28;20207;-68
2022/08/21 04:44:08;;;;;;;8.80;2.20;;;-36.50;99.90;;;;;;5077639;28;20187;-67
2022/08/21 04:46:34;;;;;;;4.47;2.37;;;-34.90;99.90;;;;;;5078318;28;20183;-74
2022/08/21 04:49:00;;;;;;;4.87;2.13;;;-33.70;99.90;;;;;;5077635;28;20660;-75
2022/08/21 04:51:31;;;;;;;2.37;1.53;;;-32.10;99.90;;;;;;5077104;28;20180;-69
2022/08/21 04:54:18;;;;;;;2.10;1.90;;;-30.40;99.90;;;;;;5078436;28;20187;-68
2022/08/21 04:56:46;;;;;;;4.93;1.87;;;-30.00;99.90;;;;;;5077232;28;20187;-74
2022/08/21 04:59:20;;;;;;;9.07;2.57;;;-35.90;99.90;;;;;;5077424;28;20214;-69
2022/08/21 05:01:46;;;;;;;4.63;2.47;;;-36.90;99.90;;;;;;5077665;28;20214;-66
2022/08/21 05:04:15;;;;;;;5.50;2.17;;;-35.60;99.90;;;;;;5076839;28;20473;-73
2022/08/21 05:06:44;;;;;;;5.90;1.93;;;-37.50;99.90;;;;;;5076324;28;20270;-70
2022/08/21 05:09:14;;;;;;;7.03;2.27;;;-35.60;99.90;;;;;;5077285;28;20198;-66
2022/08/21 05:11:42;;;;;;;5.57;2.53;;;-27.20;99.90;;;;;;5075887;28;20203;-63
2022/08/21 05:14:11;;;;;;;6.23;2.10;;;-35.10;99.90;;;;;;5076755;28;20175;-71
2022/08/21 05:16:36;;;;;;;12.30;2.40;;;-40.00;99.90;;;;;;5075788;28;20175;-65
2022/08/21 05:19:02;;;;;;;3.27;1.93;;;-39.40;99.90;;;;;;5076932;28;20194;-74
2022/08/21 05:21:28;;;;;;;3.03;1.60;;;-39.30;99.90;;;;;;5102242;27;20220;-68
2022/08/21 05:23:54;;;;;;;5.53;2.33;;;-39.90;99.90;;;;;;5077078;28;20183;-72
2022/08/21 05:26:19;;;;;;;7.17;2.50;;;-39.20;99.90;;;;;;5076681;28;20233;-68
2022/08/21 05:28:45;;;;;;;5.70;2.20;;;-34.50;99.90;;;;;;5076422;28;20239;-73
2022/08/21 05:31:11;;;;;;;2.73;1.80;;;-33.20;99.90;;;;;;5077115;28;20579;-71
2022/08/21 05:33:37;;;;;;;2.40;2.20;;;-36.40;99.90;;;;;;5091081;28;20187;-73
2022/08/21 05:36:03;;;;;;;5.40;1.73;;;-39.40;99.90;;;;;;5076449;28;20192;-71
2022/08/21 05:38:29;;;;;;;3.33;2.60;;;-40.00;99.90;;;;;;5076240;28;20179;-71
2022/08/21 05:40:55;;;;;;;4.47;2.63;;;-39.90;99.90;;;;;;5076720;28;20206;-74
2022/08/21 05:43:21;;;;;;;9.27;2.73;;;-37.80;99.90;;;;;;5077064;28;20187;-68
2022/08/21 05:45:47;;;;;;;2.93;1.90;;;-39.80;99.90;;;;;;5076868;28;20531;-65
2022/08/21 05:48:20;;;;;;;4.00;2.40;;;-38.30;99.90;;;;;;5076301;28;20182;-66
2022/08/21 05:50:47;;;;;;;3.37;1.80;;;-37.40;99.90;;;;;;5076662;28;20183;-72
2022/08/21 05:53:14;;;;;;;4.30;2.63;;;-38.80;99.90;;;;;;5076561;28;20199;-74
2022/08/21 05:55:41;;;;;;;6.77;2.40;;;-38.00;99.90;;;;;;5077856;28;20249;-72
2022/08/21 05:58:07;;;;;;;13.67;3.40;;;-36.40;99.90;;;;;;5091657;28;20183;-68
2022/08/21 06:00:33;;;;;;;3.97;1.80;;;-39.50;99.90;;;;;;5090619;28;20197;-74
2022/08/21 06:03:00;;;;;;;7.33;1.73;;;-34.50;99.90;;;;;;5091895;28;20187;-69
2022/08/21 06:05:26;;;;;;;4.03;1.60;;;-36.60;99.90;;;;;;5091033;28;20209;-70
2022/08/21 06:07:52;;;;;;;5.27;1.63;;;-40.00;99.90;;;;;;5090502;28;20183;-65
2022/08/21 06:10:18;;;;;;;3.00;1.57;;;-37.60;99.90;;;;;;5089144;28;20610;-63
2022/08/21 06:12:44;;;;;;;4.60;2.07;;;-39.70;99.90;;;;;;5089703;28;20182;-65
2022/08/21 06:15:10;;;;;;;4.60;1.90;;;-39.80;99.90;;;;;;5089615;28;20436;-70
2022/08/21 06:17:36;;;;;;;12.30;2.73;;;-36.80;99.90;;;;;;5090027;28;20201;-65
2022/08/21 06:20:04;;;;;;;3.80;2.20;;;-40.00;99.90;;;;;;5088478;28;20186;-64
2022/08/21 06:22:30;;;;;;;11.23;2.97;;;-36.00;99.90;;;;;;5084066;28;20206;-67
2022/08/21 06:24:55;;;;;;;5.10;2.17;;;-37.20;99.90;;;;;;5088840;28;20186;-64
2022/08/21 06:27:21;;;;;;;4.57;1.93;;;-38.40;99.90;;;;;;5075870;28;20189;-65
2022/08/21 06:29:47;;;;;;;2.53;1.97;;;-40.00;99.90;;;;;;5091791;28;20185;-67
2022/08/21 06:32:13;;;;;;;5.17;3.30;;;-38.30;99.90;;;;;;5072842;28;20198;-65
2022/08/21 06:34:41;;;;;;;4.07;1.67;;;-37.80;99.90;;;;;;5074216;28;20240;-66
2022/08/21 06:37:07;;;;;;;3.43;1.50;;;-37.10;99.90;;;;;;5082003;28;20241;-71
2022/08/21 06:39:34;;;;;;;8.13;2.00;;;-33.10;99.90;;;;;;5080817;28;20237;-64
2022/08/21 06:42:00;;;;;;;2.47;1.80;;;-31.60;99.90;;;;;;5075516;28;20238;-70
2022/08/21 06:44:26;;;;;;;5.50;2.10;;;-30.90;99.90;;;;;;5078829;28;20183;-66
2022/08/21 06:46:52;;;;;;;3.90;2.20;;;-29.80;99.90;;;;;;5075475;28;20237;-66
2022/08/21 06:49:18;;;;;;;8.27;1.93;;;-29.30;99.90;;;;;;5075507;28;20286;-65
2022/08/21 06:51:43;;;;;;;7.10;2.17;;;-30.90;99.90;;;;;;5075710;28;20179;-66
2022/08/21 06:54:10;;;;;;;5.40;2.30;;;-31.60;99.90;;;;;;5075641;28;20191;-67
2022/08/21 06:56:37;;;;;;;3.70;2.13;;;-30.20;99.90;;;;;;5074641;28;20186;-63
2022/08/21 06:59:05;;;;;;;4.57;1.73;;;-25.90;99.90;;;;;;5081270;28;20223;-65
2022/08/21 07:01:31;;;;;;;7.43;2.10;;;-25.20;99.90;;;;;;5074081;28;20207;-66
2022/08/21 07:03:57;;;;;;;5.17;1.90;;;-24.60;99.90;;;;;;5075895;28;20180;-66
2022/08/21 07:06:24;;;;;;;4.53;2.33;;;-24.30;99.90;;;;;;5075751;28;20172;-65
2022/08/21 07:08:50;;;;;;;3.33;1.70;;;-24.70;99.90;;;;;;5078383;28;20468;-64
2022/08/21 07:11:22;;;;;;;5.70;1.73;;;-20.40;99.90;;;;;;5077828;28;20182;-64
2022/08/21 07:13:52;;;;;;;4.80;2.00;;;-21.20;99.90;;;;;;5085148;28;20183;-64
2022/08/21 07:16:19;;;;;;;5.33;2.23;;;-22.60;99.90;;;;;;5078929;28;20187;-65
2022/08/21 07:18:45;;;;;;;6.17;2.07;;;-26.50;99.90;;;;;;5079035;28;20203;-63
2022/08/21 07:21:11;;;;;;;5.63;2.40;;;-20.40;99.90;;;;;;5079275;28;20227;-64
2022/08/21 07:23:43;;;;;;;7.93;1.50;;;-21.20;99.90;;;;;;5078823;28;20179;-63
2022/08/21 07:26:10;;;;;;;3.53;1.60;;;-19.50;99.90;;;;;;5079396;28;20179;-64
2022/08/21 07:28:36;;;;;;;1.87;1.50;;;-16.90;99.90;;;;;;5077275;28;20591;-63
2022/08/21 07:31:03;;;;;;;7.70;1.77;;;-16.90;99.90;;;;;;5083945;28;20241;-64
2022/08/21 07:33:32;;;;;;;4.93;2.13;;;-17.60;99.90;;;;;;5079955;28;20274;-62
2022/08/21 07:35:58;;;;;;;3.80;1.40;;;-16.00;99.90;;;;;;5085233;28;20617;-62
2022/08/21 07:38:25;;;;;;;5.77;1.67;;;-15.40;99.90;;;;;;5090423;28;20191;-65
2022/08/21 07:40:54;;;;;;;7.03;1.83;;;-13.60;99.90;;;;;;5088803;28;20245;-67
2022/08/21 07:43:21;;;;;;;5.27;2.90;;;-14.70;99.90;;;;;;5088538;28;20191;-66
2022/08/21 07:45:49;;;;;;;10.90;2.47;;;-13.40;99.90;;;;;;5083447;28;20185;-65
2022/08/21 07:48:15;;;;;;;6.83;2.20;;;-15.30;99.90;;;;;;5088527;28;20172;-64
2022/08/21 07:50:42;;;;;;;5.20;2.10;;;-14.50;99.90;;;;;;5077801;28;20266;-66
2022/08/21 07:53:08;;;;;;;6.20;2.47;;;-13.60;99.90;;;;;;5084156;28;20191;-66
2022/08/21 07:55:34;;;;;;;6.17;1.87;;;-11.10;99.90;;;;;;5078611;28;20183;-62
2022/08/21 07:58:00;;;;;;;9.37;2.13;;;-12.90;99.90;;;;;;5083740;28;20191;-64
2022/08/21 08:00:28;;;;;;;6.00;2.00;;;-10.40;99.90;;;;;;5077580;28;20267;-64
2022/08/21 08:02:54;;;;;;;7.07;1.73;;;-14.50;99.90;;;;;;5076843;28;20179;-64
2022/08/21 08:05:23;;;;;;;8.47;2.00;;;-11.30;99.90;;;;;;5078297;28;20190;-62
2022/08/21 08:07:48;;;;;;;5.77;1.80;;;-14.80;99.90;;;;;;5077408;28;20175;-64
2022/08/21 08:10:15;;;;;;;5.70;2.33;;;-14.60;99.90;;;;;;5078015;28;20175;-63
2022/08/21 08:12:43;;;;;;;4.13;1.47;;;-9.10;99.90;;;;;;5077686;28;20187;-66
2022/08/21 08:15:13;;;;;;;5.40;2.50;;;-10.70;99.90;;;;;;5078250;28;20492;-63
2022/08/21 08:17:39;;;;;;;7.03;2.00;;;-8.40;99.90;;;;;;5078226;28;20191;-65
2022/08/21 08:20:07;;;;;;;9.93;3.03;;;-8.60;99.90;;;;;;5077469;28;20590;-64
2022/08/21 08:22:35;;;;;;;7.40;1.70;;;-8.10;99.90;;;;;;5083232;28;20199;-64
2022/08/21 08:25:01;;;;;;;5.00;1.87;;;-6.20;99.90;;;;;;5089518;28;20268;-63
2022/08/21 08:27:27;;;;;;;4.20;2.60;;;-10.50;99.90;;;;;;5090055;28;20258;-66
2022/08/21 08:29:53;;;;;;;8.77;2.10;;;-9.00;99.90;;;;;;5075725;28;20183;-64
2022/08/21 08:32:19;;;;;;;12.10;2.40;;;-14.70;99.90;;;;;;5076350;28;20205;-64
2022/08/21 08:34:46;;;;;;;9.20;1.90;;;-11.80;99.90;;;;;;5079989;28;20190;-66
2022/08/21 08:37:13;;;;;;;7.03;2.77;;;-7.00;99.90;;;;;;5077233;28;20193;-65
2022/08/21 08:39:38;;;;;;;6.10;2.30;;;-10.50;99.90;;;;;;5077457;28;20242;-65
2022/08/21 08:42:06;;;;;;;10.33;2.37;;;-10.00;99.90;;;;;;5078544;28;20231;-63
2022/08/21 08:44:33;;;;;;;8.43;3.30;;;-7.80;99.90;;;;;;5077817;28;20176;-66
2022/08/21 08:47:00;;;;;;;9.50;3.07;;;-7.70;99.90;;;;;;5077352;28;20191;-64
2022/08/21 08:49:39;;;;;;;5.07;1.37;;;-10.70;99.90;;;;;;5076623;28;20290;-64
2022/08/21 08:52:28;;;;;;;5.00;1.47;;;-9.30;99.90;;;;;;5077409;28;20210;-66
2022/08/21 08:55:11;;;;;;;4.90;1.50;;;-9.40;99.90;;;;;;5083523;28;20283;-67
2022/08/21 08:57:39;;;;;;;4.23;2.47;;;-9.50;99.90;;;;;;5092670;28;20589;-64
2022/08/21 09:00:10;;;;;;;6.83;1.70;;;-8.20;99.90;;;;;;5086918;28;20214;-63
2022/08/21 09:02:39;;;;;;;6.93;1.90;;;-10.30;99.90;;;;;;5079590;28;20209;-64
2022/08/21 09:05:07;;;;;;;3.13;1.30;;;-12.50;99.90;;;;;;5077547;28;20182;-66
2022/08/21 09:07:33;;;;;;;6.93;3.00;;;-12.30;99.90;;;;;;5076960;28;20179;-64
2022/08/21 09:10:04;;;;;;;3.77;1.60;;;-9.20;99.90;;;;;;5081775;28;20182;-66
2022/08/21 09:13:11;;;;;;;5.40;1.93;;;-11.60;99.90;;;;;;5085831;28;20207;-66
2022/08/21 09:15:37;;;;;;;12.13;2.63;;;-7.00;99.90;;;;;;5087916;28;20179;-67
2022/08/21 09:18:20;;;;;;;6.40;2.00;;;-10.70;99.90;;;;;;5086992;28;20232;-64
2022/08/21 09:21:17;;;;;;;6.50;2.03;;;-11.50;99.90;;;;;;5084100;28;20275;-65
2022/08/21 09:24:04;;;;;;;4.73;1.53;;;-11.20;99.90;;;;;;5083366;28;20270;-64
2022/08/21 09:27:02;;;;;;;4.30;1.77;;;-11.60;99.90;;;;;;5080102;28;20210;-65
2022/08/21 09:29:33;;;;;;;8.03;1.97;;;-7.50;99.90;;;;;;5089025;28;20327;-65
2022/08/21 09:31:59;;;;;;;4.47;2.30;;;-11.70;99.90;;;;;;5081542;28;20182;-67
2022/08/21 09:34:31;;;;;;;3.00;1.53;;;-9.60;99.90;;;;;;5081653;28;20481;-65
2022/08/21 09:36:57;;;;;;;9.40;1.80;;;-6.60;99.90;;;;;;5085482;28;20179;-67
2022/08/21 09:39:29;;;;;;;3.83;1.63;;;-11.40;99.90;;;;;;5082795;28;20197;-65
2022/08/21 09:42:02;;;;;;;3.00;1.43;;;-12.10;99.90;;;;;;5080840;28;20295;-65
2022/08/21 09:44:31;;;;;;;8.13;2.57;;;-21.20;99.20;;;;;;5084948;28;20186;-64
2022/08/21 09:46:57;;;;;;;4.77;1.30;;;-20.40;99.40;;;;;;5077660;28;20591;-64
2022/08/21 09:49:32;;;;;;;6.13;1.90;;;-20.80;98.40;;;;;;5084036;28;20287;-66
2022/08/21 09:51:59;;;;;;;6.70;2.00;;;-23.40;96.50;;;;;;5081123;28;20243;-67
2022/08/21 09:54:34;;;;;;;4.87;2.30;;;-25.00;95.30;;;;;;5079471;28;20551;-65
2022/08/21 09:59:53;;;;;;;7.93;1.97;;;-35.80;91.90;;;;;;5078064;28;20248;-66
2022/08/21 10:02:22;;;;;;;6.20;2.40;;;-40.00;88.50;;;;;;5082108;28;20230;-63
2022/08/21 10:04:57;;;;;;;9.23;2.07;;;-40.00;89.10;;;;;;5082307;28;20524;-66
2022/08/21 10:07:25;;;;;;;12.93;3.60;;;-40.00;90.10;;;;;;5088385;28;20210;-65
2022/08/21 10:10:06;;;;;;;13.60;2.93;;;-40.00;89.30;;;;;;5086321;28;20590;-62
2022/08/21 10:12:47;;;;;;;6.70;2.13;;;-40.00;88.70;;;;;;5087298;28;20227;-64
2022/08/21 10:15:46;;;;;;;7.97;2.00;;;-40.00;89.30;;;;;;5088434;28;20258;-64
2022/08/21 10:18:39;;;;;;;9.87;2.73;;;-38.30;90.40;;;;;;5075203;28;20240;-64
2022/08/21 10:21:17;;;;;;;6.37;2.93;;;-40.00;88.80;;;;;;5085056;28;20206;-64
2022/08/21 10:23:49;;;;;;;6.70;2.20;;;-40.00;87.30;;;;;;5088619;28;20171;-65
2022/08/21 10:26:17;;;;;;;8.37;2.20;;;-25.30;93.70;;;;;;5083825;28;20250;-67
2022/08/21 10:29:03;;;;;;;4.17;1.50;;;-20.30;96.00;;;;;;5076657;28;20186;-63
2022/08/21 10:32:04;;;;;;;3.20;1.57;;;-29.40;93.20;;;;;;5075307;28;20183;-64
2022/08/21 10:34:42;;;;;;;11.60;2.60;;;-40.00;88.00;;;;;;5078579;28;20179;-62
2022/08/21 10:37:34;;;;;;;7.27;2.03;;;-40.00;86.90;;;;;;5077914;28;20239;-63
2022/08/21 10:40:18;;;;;;;10.60;2.73;;;-40.00;86.40;;;;;;5074433;28;20608;-64
2022/08/21 10:42:49;;;;;;;4.37;1.77;;;-40.00;86.70;;;;;;5076811;28;20209;-62
2022/08/21 10:45:23;;;;;;;5.13;2.30;;;-29.00;92.50;;;;;;5079880;28;20180;-63
2022/08/21 10:47:54;;;;;;;6.70;3.40;;;-40.00;86.50;;;;;;5080270;28;20199;-62
2022/08/21 10:50:28;;;;;;;4.57;2.17;;;-40.00;86.00;;;;;;5079545;28;20191;-63
2022/08/21 10:53:18;;;;;;;5.30;1.97;;;-40.00;86.10;;;;;;5079878;28;20182;-63
2022/08/21 10:55:52;;;;;;;7.57;1.83;;;-40.00;84.70;;;;;;5078890;28;20233;-62
2022/08/21 10:58:37;;;;;;;5.37;1.63;;;-40.00;84.00;;;;;;5079647;28;20266;-62
2022/08/21 11:01:28;;;;;;;5.07;1.80;;;-40.00;82.60;;;;;;5079815;28;20255;-62
2022/08/21 11:04:28;;;;;;;5.93;1.70;;;-40.00;79.30;;;;;;5084170;28;20667;-64
2022/08/21 11:07:19;;;;;;;6.50;3.17;;;-40.00;79.50;;;;;;5079083;28;20183;-62
2022/08/21 11:09:49;;;;;;;7.60;2.83;;;-40.00;78.40;;;;;;5053440;28;20266;-63
2022/08/21 11:12:36;;;;;;;3.30;1.80;;;-40.00;76.40;;;;;;5079230;28;20185;-63
2022/08/21 11:15:22;;;;;;;5.33;2.57;;;-40.00;78.80;;;;;;5077111;28;20191;-63
2022/08/21 11:17:57;;;;;;;10.07;2.57;;;-40.00;77.70;;;;;;5064837;28;20622;-62
2022/08/21 11:20:38;;;;;;;5.03;3.23;;;-40.00;74.30;;;;;;5078987;28;20171;-63
2022/08/21 11:23:43;;;;;;;8.70;2.73;;;-40.00;73.20;;;;;;5079688;28;20187;-64
2022/08/21 11:26:23;;;;;;;8.13;2.33;;;-40.00;72.80;;;;;;5078725;28;20558;-63
2022/08/21 11:29:00;;;;;;;6.93;2.00;;;-40.00;73.00;;;;;;5086901;28;20179;-62
2022/08/21 11:31:35;;;;;;;4.33;1.93;;;-40.00;72.00;;;;;;5079335;28;20197;-62
2022/08/21 11:34:21;;;;;;;4.30;2.10;;;-40.00;73.70;;;;;;5078815;28;20669;-64
2022/08/21 11:37:25;;;;;;;7.70;1.73;;;-40.00;75.20;;;;;;5083777;28;20239;-64
2022/08/21 11:40:10;;;;;;;9.10;1.87;;;-40.00;74.80;;;;;;5079166;28;20231;-63
2022/08/21 11:42:54;;;;;;;12.03;2.50;;;-40.00;76.60;;;;;;5079693;28;20202;-64
2022/08/21 11:45:43;;;;;;;5.87;1.97;;;-40.00;76.70;;;;;;5079143;28;20602;-66
2022/08/21 11:48:21;;;;;;;4.27;2.10;;;-40.00;76.20;;;;;;5073166;28;20234;-66
2022/08/21 11:50:49;;;;;;;8.10;2.27;;;-40.00;76.90;;;;;;5078146;28;20198;-67
2022/08/21 11:53:18;;;;;;;7.87;2.57;;;-40.00;75.40;;;;;;5077344;28;20180;-62
2022/08/21 11:55:50;;;;;;;6.57;2.80;;;-40.00;73.30;;;;;;5079912;28;20179;-62
2022/08/21 11:58:39;;;;;;;5.47;2.03;;;-40.00;72.10;;;;;;5078197;28;20179;-66
2022/08/21 12:01:29;;;;;;;5.10;1.40;;;-40.00;69.10;;;;;;5078033;28;20286;-63
2022/08/21 12:04:01;;;;;;;4.53;2.13;;;-40.00;65.50;;;;;;5079094;28;20233;-63
2022/08/21 12:06:40;;;;;;;5.17;1.97;;;-40.00;62.70;;;;;;5077455;28;20199;-67
2022/08/21 12:09:11;;;;;;;6.10;2.23;;;-40.00;62.10;;;;;;5078213;28;20185;-64
2022/08/21 12:12:00;;;;;;;8.13;2.07;;;-40.00;59.30;;;;;;5081831;28;20191;-64
2022/08/21 12:14:43;;;;;;;3.23;1.80;;;-40.00;59.40;;;;;;5077728;28;20192;-65
2022/08/21 12:17:34;;;;;;;4.37;2.23;;;-40.00;59.40;;;;;;5078462;28;20186;-64
2022/08/21 12:20:34;;;;;;;5.13;2.30;;;-40.00;58.60;;;;;;5078105;28;20270;-65
2022/08/21 12:23:18;;;;;;;6.77;2.17;;;-40.00;56.30;;;;;;5078829;28;20187;-64
2022/08/21 12:26:09;;;;;;;7.23;2.40;;;-40.00;53.50;;;;;;5092632;28;20206;-64
2022/08/21 12:28:35;;;;;;;4.83;1.87;;;-40.00;52.40;;;;;;5079781;28;20203;-62
2022/08/21 12:31:00;;;;;;;6.93;2.20;;;-40.00;51.00;;;;;;5078242;28;20217;-63
2022/08/21 12:33:39;;;;;;;8.20;2.20;;;-40.00;54.80;;;;;;5078414;28;20313;-62
2022/08/21 12:36:21;;;;;;;5.70;2.63;;;-40.00;57.40;;;;;;5077738;28;20232;-65
2022/08/21 12:39:22;;;;;;;4.33;1.50;;;-40.00;58.70;;;;;;5078036;28;20209;-63
2022/08/21 12:42:03;;;;;;;5.13;1.70;;;-40.00;54.50;;;;;;5079295;28;20210;-64
2022/08/21 12:44:39;;;;;;;4.97;1.90;;;-40.00;55.80;;;;;;5078229;28;20590;-64
2022/08/21 12:47:27;;;;;;;6.10;2.20;;;-40.00;52.20;;;;;;5077799;28;20171;-63
2022/08/21 12:50:04;;;;;;;7.40;2.35;;;-40.00;45.90;;;;;;5077089;28;20286;-63
2022/08/21 12:52:40;;;;;;;3.63;2.13;;;-40.00;43.30;;;;;;5076714;28;20175;-66
2022/08/21 12:55:12;;;;;;;3.25;1.60;;;-40.00;46.30;;;;;;5077655;28;20183;-62
2022/08/21 12:57:40;;;;;;;5.87;1.67;;;-40.00;50.70;;;;;;5077052;28;20176;-64